sensor_id;sensor_type;location;lat;lon;timestamp;P1;durP1;ratioP1;P2;durP2;ratioP2
6422;SDS011;3244;42.708;23.288;2023-03-08T02:28:29;24.02;;;13.27;;
6422;SDS011;3244;42.708;23.288;2023-03-08T02:30:57;23.05;;;12.10;;
6422;SDS011;3244;42.708;23.288;2023-03-08T02:33:24;22.15;;;11.80;;
6422;SDS011;3244;42.708;23.288;2023-03-08T02:35:51;17.42;;;11.80;;
6422;SDS011;3244;42.708;23.288;2023-03-08T02:38:19;32.10;;;11.77;;
6422;SDS011;3244;42.708;23.288;2023-03-08T02:40:46;18.08;;;12.10;;
6422;SDS011;3244;42.708;23.288;2023-03-08T02:43:17;23.65;;;12.65;;
6422;SDS011;3244;42.708;23.288;2023-03-08T02:45:43;19.52;;;11.88;;
6422;SDS011;3244;42.708;23.288;2023-03-08T02:48:10;21.55;;;13.30;;
6422;SDS011;3244;42.708;23.288;2023-03-08T02:50:38;18.35;;;11.60;;
6422;SDS011;3244;42.708;23.288;2023-03-08T02:53:05;21.50;;;11.52;;
6422;SDS011;3244;42.708;23.288;2023-03-08T02:55:32;22.27;;;11.05;;
6422;SDS011;3244;42.708;23.288;2023-03-08T02:58:00;17.13;;;11.13;;
6422;SDS011;3244;42.708;23.288;2023-03-08T03:00:29;16.73;;;9.50;;
6422;SDS011;3244;42.708;23.288;2023-03-08T03:02:55;18.35;;;9.93;;
6422;SDS011;3244;42.708;23.288;2023-03-08T03:05:22;20.90;;;8.93;;
6422;SDS011;3244;42.708;23.288;2023-03-08T03:07:49;21.15;;;9.88;;
6422;SDS011;3244;42.708;23.288;2023-03-08T03:10:15;14.50;;;9.77;;
6422;SDS011;3244;42.708;23.288;2023-03-08T03:12:42;9.95;;;8.20;;
6422;SDS011;3244;42.708;23.288;2023-03-08T03:15:09;18.10;;;8.35;;
6422;SDS011;3244;42.708;23.288;2023-03-08T03:17:38;11.25;;;7.63;;
6422;SDS011;3244;42.708;23.288;2023-03-08T03:20:06;13.93;;;9.68;;
6422;SDS011;3244;42.708;23.288;2023-03-08T03:22:34;12.43;;;9.45;;
6422;SDS011;3244;42.708;23.288;2023-03-08T03:25:01;17.80;;;10.70;;
6422;SDS011;3244;42.708;23.288;2023-03-08T03:27:28;11.82;;;8.73;;
6422;SDS011;3244;42.708;23.288;2023-03-08T03:29:55;18.92;;;9.43;;
6422;SDS011;3244;42.708;23.288;2023-03-08T03:32:21;17.92;;;9.07;;
6422;SDS011;3244;42.708;23.288;2023-03-08T03:34:49;13.35;;;8.93;;
6422;SDS011;3244;42.708;23.288;2023-03-08T03:37:16;16.30;;;9.07;;
6422;SDS011;3244;42.708;23.288;2023-03-08T03:39:43;12.75;;;8.15;;
6422;SDS011;3244;42.708;23.288;2023-03-08T03:42:10;16.88;;;9.73;;
6422;SDS011;3244;42.708;23.288;2023-03-08T03:44:36;19.55;;;9.52;;
6422;SDS011;3244;42.708;23.288;2023-03-08T03:47:04;17.95;;;8.77;;
6422;SDS011;3244;42.708;23.288;2023-03-08T03:49:31;15.10;;;8.95;;
6422;SDS011;3244;42.708;23.288;2023-03-08T03:51:59;11.60;;;8.50;;
6422;SDS011;3244;42.708;23.288;2023-03-08T03:54:25;16.17;;;9.88;;
6422;SDS011;3244;42.708;23.288;2023-03-08T03:56:52;14.60;;;8.98;;
6422;SDS011;3244;42.708;23.288;2023-03-08T03:59:22;14.98;;;8.90;;
6422;SDS011;3244;42.708;23.288;2023-03-08T04:01:49;14.93;;;8.93;;
6422;SDS011;3244;42.708;23.288;2023-03-08T04:04:16;16.95;;;8.57;;
6422;SDS011;3244;42.708;23.288;2023-03-08T04:06:44;15.15;;;9.10;;
6422;SDS011;3244;42.708;23.288;2023-03-08T04:09:13;17.63;;;9.05;;
6422;SDS011;3244;42.708;23.288;2023-03-08T04:11:42;22.73;;;10.10;;
6422;SDS011;3244;42.708;23.288;2023-03-08T04:14:08;14.00;;;8.50;;
6422;SDS011;3244;42.708;23.288;2023-03-08T04:16:36;23.08;;;11.07;;
6422;SDS011;3244;42.708;23.288;2023-03-08T04:19:04;14.10;;;9.48;;
6422;SDS011;3244;42.708;23.288;2023-03-08T04:21:33;14.73;;;9.70;;
6422;SDS011;3244;42.708;23.288;2023-03-08T04:24:00;16.63;;;10.35;;
6422;SDS011;3244;42.708;23.288;2023-03-08T04:26:28;17.42;;;10.15;;
6422;SDS011;3244;42.708;23.288;2023-03-08T04:28:55;15.80;;;9.45;;
6422;SDS011;3244;42.708;23.288;2023-03-08T04:31:22;27.98;;;11.25;;
6422;SDS011;3244;42.708;23.288;2023-03-08T04:33:51;18.05;;;9.35;;
6422;SDS011;3244;42.708;23.288;2023-03-08T04:36:18;27.45;;;10.30;;
6422;SDS011;3244;42.708;23.288;2023-03-08T04:38:46;29.20;;;10.77;;
6422;SDS011;3244;42.708;23.288;2023-03-08T04:41:13;17.15;;;10.55;;
6422;SDS011;3244;42.708;23.288;2023-03-08T04:43:44;22.92;;;12.45;;
6422;SDS011;3244;42.708;23.288;2023-03-08T04:46:12;24.60;;;12.77;;
6422;SDS011;3244;42.708;23.288;2023-03-08T04:48:40;23.50;;;11.73;;
6422;SDS011;3244;42.708;23.288;2023-03-08T04:51:06;17.17;;;10.13;;
6422;SDS011;3244;42.708;23.288;2023-03-08T04:53:34;17.67;;;9.95;;
6422;SDS011;3244;42.708;23.288;2023-03-08T04:56:03;18.05;;;9.82;;
6422;SDS011;3244;42.708;23.288;2023-03-08T04:58:31;20.67;;;9.57;;
6422;SDS011;3244;42.708;23.288;2023-03-08T05:00:59;20.45;;;11.02;;
6422;SDS011;3244;42.708;23.288;2023-03-08T05:03:33;19.35;;;10.00;;
6422;SDS011;3244;42.708;23.288;2023-03-08T05:05:59;24.08;;;11.02;;
6422;SDS011;3244;42.708;23.288;2023-03-08T05:08:26;40.55;;;18.27;;
6422;SDS011;3244;42.708;23.288;2023-03-08T05:10:54;39.10;;;22.23;;
6422;SDS011;3244;42.708;23.288;2023-03-08T05:13:22;31.73;;;18.95;;
6422;SDS011;3244;42.708;23.288;2023-03-08T05:15:49;20.05;;;12.75;;
6422;SDS011;3244;42.708;23.288;2023-03-08T05:18:17;19.35;;;10.88;;
6422;SDS011;3244;42.708;23.288;2023-03-08T05:20:51;25.17;;;11.00;;
6422;SDS011;3244;42.708;23.288;2023-03-08T05:23:18;20.08;;;11.07;;
6422;SDS011;3244;42.708;23.288;2023-03-08T05:25:45;21.67;;;10.88;;
6422;SDS011;3244;42.708;23.288;2023-03-08T05:28:12;26.85;;;11.25;;
6422;SDS011;3244;42.708;23.288;2023-03-08T05:30:40;25.40;;;14.68;;
6422;SDS011;3244;42.708;23.288;2023-03-08T05:33:06;38.20;;;15.02;;
6422;SDS011;3244;42.708;23.288;2023-03-08T05:35:34;30.58;;;13.88;;
6422;SDS011;3244;42.708;23.288;2023-03-08T05:38:01;33.10;;;12.07;;
6422;SDS011;3244;42.708;23.288;2023-03-08T05:40:28;20.35;;;12.00;;
6422;SDS011;3244;42.708;23.288;2023-03-08T05:42:54;19.50;;;10.43;;
6422;SDS011;3244;42.708;23.288;2023-03-08T05:45:21;24.00;;;11.93;;
6422;SDS011;3244;42.708;23.288;2023-03-08T05:47:48;24.02;;;11.20;;
6422;SDS011;3244;42.708;23.288;2023-03-08T05:50:15;19.20;;;11.45;;
6422;SDS011;3244;42.708;23.288;2023-03-08T05:52:43;25.65;;;11.18;;
6422;SDS011;3244;42.708;23.288;2023-03-08T05:55:11;16.63;;;10.52;;
6422;SDS011;3244;42.708;23.288;2023-03-08T05:57:38;16.25;;;11.82;;
6422;SDS011;3244;42.708;23.288;2023-03-08T06:00:05;22.90;;;11.48;;
6422;SDS011;3244;42.708;23.288;2023-03-08T06:02:33;20.23;;;12.52;;
6422;SDS011;3244;42.708;23.288;2023-03-08T06:04:59;26.08;;;13.18;;
6422;SDS011;3244;42.708;23.288;2023-03-08T06:07:26;35.60;;;13.65;;
6422;SDS011;3244;42.708;23.288;2023-03-08T06:09:54;30.77;;;12.93;;
6422;SDS011;3244;42.708;23.288;2023-03-08T06:12:21;21.73;;;13.88;;
6422;SDS011;3244;42.708;23.288;2023-03-08T06:14:47;33.45;;;16.15;;
6422;SDS011;3244;42.708;23.288;2023-03-08T06:17:14;27.27;;;14.57;;
6422;SDS011;3244;42.708;23.288;2023-03-08T06:19:41;30.85;;;14.77;;
6422;SDS011;3244;42.708;23.288;2023-03-08T06:22:07;22.58;;;13.18;;
6422;SDS011;3244;42.708;23.288;2023-03-08T06:24:34;23.13;;;13.30;;
6422;SDS011;3244;42.708;23.288;2023-03-08T06:27:02;24.05;;;12.70;;
6422;SDS011;3244;42.708;23.288;2023-03-08T06:29:29;25.13;;;14.55;;
6422;SDS011;3244;42.708;23.288;2023-03-08T06:31:56;19.55;;;10.35;;
6422;SDS011;3244;42.708;23.288;2023-03-08T06:34:22;16.48;;;11.55;;
6422;SDS011;3244;42.708;23.288;2023-03-08T06:36:49;27.52;;;13.02;;
6422;SDS011;3244;42.708;23.288;2023-03-08T06:39:16;26.88;;;14.32;;
6422;SDS011;3244;42.708;23.288;2023-03-08T06:41:42;25.65;;;14.63;;
6422;SDS011;3244;42.708;23.288;2023-03-08T06:44:10;38.35;;;15.60;;
6422;SDS011;3244;42.708;23.288;2023-03-08T06:46:37;25.40;;;13.32;;
6422;SDS011;3244;42.708;23.288;2023-03-08T06:49:04;25.55;;;12.40;;
6422;SDS011;3244;42.708;23.288;2023-03-08T06:51:31;20.40;;;11.57;;
6422;SDS011;3244;42.708;23.288;2023-03-08T06:53:58;13.95;;;10.88;;
6422;SDS011;3244;42.708;23.288;2023-03-08T06:56:25;17.55;;;10.68;;
6422;SDS011;3244;42.708;23.288;2023-03-08T06:58:52;21.85;;;12.50;;
6422;SDS011;3244;42.708;23.288;2023-03-08T07:01:20;21.77;;;13.05;;
6422;SDS011;3244;42.708;23.288;2023-03-08T07:03:46;9.15;;;6.57;;
6422;SDS011;3244;42.708;23.288;2023-03-08T07:06:14;14.00;;;6.85;;
6422;SDS011;3244;42.708;23.288;2023-03-08T07:08:41;20.60;;;8.85;;
6422;SDS011;3244;42.708;23.288;2023-03-08T07:11:08;12.43;;;9.27;;
6422;SDS011;3244;42.708;23.288;2023-03-08T07:13:34;14.57;;;9.48;;
6422;SDS011;3244;42.708;23.288;2023-03-08T07:16:04;15.80;;;9.73;;
6422;SDS011;3244;42.708;23.288;2023-03-08T07:18:33;15.73;;;9.43;;
6422;SDS011;3244;42.708;23.288;2023-03-08T07:21:00;17.95;;;8.48;;
6422;SDS011;3244;42.708;23.288;2023-03-08T07:23:27;14.60;;;9.25;;
6422;SDS011;3244;42.708;23.288;2023-03-08T07:25:53;10.98;;;8.75;;
6422;SDS011;3244;42.708;23.288;2023-03-08T07:28:20;11.25;;;8.32;;
6422;SDS011;3244;42.708;23.288;2023-03-08T07:30:47;9.88;;;7.75;;
6422;SDS011;3244;42.708;23.288;2023-03-08T07:33:14;15.20;;;8.30;;
6422;SDS011;3244;42.708;23.288;2023-03-08T07:35:42;15.30;;;7.25;;
6422;SDS011;3244;42.708;23.288;2023-03-08T07:38:10;19.73;;;8.95;;
6422;SDS011;3244;42.708;23.288;2023-03-08T07:40:37;9.70;;;7.03;;
6422;SDS011;3244;42.708;23.288;2023-03-08T07:43:04;18.08;;;8.15;;
6422;SDS011;3244;42.708;23.288;2023-03-08T07:45:31;9.57;;;7.10;;
6422;SDS011;3244;42.708;23.288;2023-03-08T07:47:58;10.57;;;6.45;;
6422;SDS011;3244;42.708;23.288;2023-03-08T07:50:24;10.00;;;6.32;;
6422;SDS011;3244;42.708;23.288;2023-03-08T07:52:53;10.93;;;6.68;;
6422;SDS011;3244;42.708;23.288;2023-03-08T07:55:20;8.63;;;6.30;;
6422;SDS011;3244;42.708;23.288;2023-03-08T07:57:46;7.95;;;6.88;;
6422;SDS011;3244;42.708;23.288;2023-03-08T08:00:13;14.35;;;6.72;;
6422;SDS011;3244;42.708;23.288;2023-03-08T08:02:40;9.77;;;6.47;;
6422;SDS011;3244;42.708;23.288;2023-03-08T08:05:07;8.27;;;6.57;;
6422;SDS011;3244;42.708;23.288;2023-03-08T08:07:34;10.73;;;6.50;;
6422;SDS011;3244;42.708;23.288;2023-03-08T08:10:02;12.23;;;6.70;;
6422;SDS011;3244;42.708;23.288;2023-03-08T08:12:29;7.20;;;6.22;;
6422;SDS011;3244;42.708;23.288;2023-03-08T08:14:56;9.43;;;6.78;;
6422;SDS011;3244;42.708;23.288;2023-03-08T08:17:24;10.57;;;7.03;;
6422;SDS011;3244;42.708;23.288;2023-03-08T08:19:51;15.50;;;7.20;;
6422;SDS011;3244;42.708;23.288;2023-03-08T08:22:17;13.70;;;8.00;;
6422;SDS011;3244;42.708;23.288;2023-03-08T08:24:44;13.43;;;8.40;;
6422;SDS011;3244;42.708;23.288;2023-03-08T08:27:12;13.95;;;7.68;;
6422;SDS011;3244;42.708;23.288;2023-03-08T08:29:39;10.70;;;7.07;;
6422;SDS011;3244;42.708;23.288;2023-03-08T08:32:05;16.58;;;8.05;;
6422;SDS011;3244;42.708;23.288;2023-03-08T08:34:33;9.73;;;6.95;;
6422;SDS011;3244;42.708;23.288;2023-03-08T08:36:59;9.10;;;7.13;;
6422;SDS011;3244;42.708;23.288;2023-03-08T08:39:26;7.60;;;6.80;;
6422;SDS011;3244;42.708;23.288;2023-03-08T08:41:53;9.27;;;6.10;;
6422;SDS011;3244;42.708;23.288;2023-03-08T08:44:21;14.07;;;7.20;;
6422;SDS011;3244;42.708;23.288;2023-03-08T08:46:47;12.20;;;6.95;;
6422;SDS011;3244;42.708;23.288;2023-03-08T08:49:14;13.43;;;6.97;;
6422;SDS011;3244;42.708;23.288;2023-03-08T08:51:40;12.32;;;7.72;;
6422;SDS011;3244;42.708;23.288;2023-03-08T08:54:07;11.73;;;7.57;;
6422;SDS011;3244;42.708;23.288;2023-03-08T08:56:34;21.55;;;9.07;;
6422;SDS011;3244;42.708;23.288;2023-03-08T08:59:07;13.15;;;8.27;;
6422;SDS011;3244;42.708;23.288;2023-03-08T09:01:37;12.85;;;8.30;;
6422;SDS011;3244;42.708;23.288;2023-03-08T09:04:07;14.00;;;9.15;;
6422;SDS011;3244;42.708;23.288;2023-03-08T09:06:34;13.95;;;9.55;;
6422;SDS011;3244;42.708;23.288;2023-03-08T09:09:02;10.40;;;8.27;;
6422;SDS011;3244;42.708;23.288;2023-03-08T09:11:29;19.10;;;9.13;;
6422;SDS011;3244;42.708;23.288;2023-03-08T09:13:56;15.23;;;8.02;;
6422;SDS011;3244;42.708;23.288;2023-03-08T09:16:24;13.90;;;8.95;;
6422;SDS011;3244;42.708;23.288;2023-03-08T09:18:54;14.07;;;8.38;;
6422;SDS011;3244;42.708;23.288;2023-03-08T09:21:22;14.98;;;7.65;;
6422;SDS011;3244;42.708;23.288;2023-03-08T09:23:49;13.80;;;8.20;;
6422;SDS011;3244;42.708;23.288;2023-03-08T09:26:16;21.30;;;9.35;;
6422;SDS011;3244;42.708;23.288;2023-03-08T09:28:43;13.80;;;8.23;;
6422;SDS011;3244;42.708;23.288;2023-03-08T09:31:11;15.20;;;7.78;;
6422;SDS011;3244;42.708;23.288;2023-03-08T09:33:39;12.02;;;8.43;;
6422;SDS011;3244;42.708;23.288;2023-03-08T09:36:08;10.82;;;8.82;;
6422;SDS011;3244;42.708;23.288;2023-03-08T09:38:36;12.82;;;8.43;;
6422;SDS011;3244;42.708;23.288;2023-03-08T09:41:07;14.50;;;9.27;;
6422;SDS011;3244;42.708;23.288;2023-03-08T09:43:46;14.45;;;9.27;;
6422;SDS011;3244;42.708;23.288;2023-03-08T09:46:23;13.43;;;7.95;;
6422;SDS011;3244;42.708;23.288;2023-03-08T09:48:55;15.25;;;9.77;;
6422;SDS011;3244;42.708;23.288;2023-03-08T09:51:26;17.95;;;9.13;;
6422;SDS011;3244;42.708;23.288;2023-03-08T09:54:01;12.32;;;9.63;;
6422;SDS011;3244;42.708;23.288;2023-03-08T09:56:35;10.20;;;8.25;;
6422;SDS011;3244;42.708;23.288;2023-03-08T09:59:07;8.73;;;7.88;;
6422;SDS011;3244;42.708;23.288;2023-03-08T10:01:40;14.52;;;7.60;;
6422;SDS011;3244;42.708;23.288;2023-03-08T10:04:14;14.95;;;8.25;;
6422;SDS011;3244;42.708;23.288;2023-03-08T10:06:59;13.32;;;8.18;;
6422;SDS011;3244;42.708;23.288;2023-03-08T10:09:41;9.00;;;7.15;;
6422;SDS011;3244;42.708;23.288;2023-03-08T10:12:14;15.27;;;7.40;;
6422;SDS011;3244;42.708;23.288;2023-03-08T10:14:48;12.63;;;6.43;;
6422;SDS011;3244;42.708;23.288;2023-03-08T10:17:19;9.15;;;7.35;;
6422;SDS011;3244;42.708;23.288;2023-03-08T10:19:50;12.45;;;6.68;;
6422;SDS011;3244;42.708;23.288;2023-03-08T10:22:24;9.02;;;5.60;;
6422;SDS011;3244;42.708;23.288;2023-03-08T10:24:53;10.40;;;5.85;;
6422;SDS011;3244;42.708;23.288;2023-03-08T10:27:24;6.18;;;5.57;;
6422;SDS011;3244;42.708;23.288;2023-03-08T10:29:53;10.02;;;6.28;;
6422;SDS011;3244;42.708;23.288;2023-03-08T10:32:22;12.57;;;6.03;;
6422;SDS011;3244;42.708;23.288;2023-03-08T10:34:49;5.53;;;5.10;;
6422;SDS011;3244;42.708;23.288;2023-03-08T10:37:16;7.43;;;5.53;;
6422;SDS011;3244;42.708;23.288;2023-03-08T10:39:48;8.82;;;6.78;;
6422;SDS011;3244;42.708;23.288;2023-03-08T10:42:18;7.55;;;6.22;;
6422;SDS011;3244;42.708;23.288;2023-03-08T10:44:52;8.70;;;5.35;;
6422;SDS011;3244;42.708;23.288;2023-03-08T10:47:21;7.60;;;5.47;;
6422;SDS011;3244;42.708;23.288;2023-03-08T10:50:01;8.02;;;4.85;;
6422;SDS011;3244;42.708;23.288;2023-03-08T10:52:37;5.65;;;4.93;;
6422;SDS011;3244;42.708;23.288;2023-03-08T10:55:06;8.63;;;4.32;;
6422;SDS011;3244;42.708;23.288;2023-03-08T10:57:38;9.30;;;6.10;;
6422;SDS011;3244;42.708;23.288;2023-03-08T11:00:07;14.00;;;5.68;;
6422;SDS011;3244;42.708;23.288;2023-03-08T11:03:00;5.40;;;4.90;;
6422;SDS011;3244;42.708;23.288;2023-03-08T11:05:29;8.75;;;4.53;;
6422;SDS011;3244;42.708;23.288;2023-03-08T11:07:56;7.05;;;3.47;;
6422;SDS011;3244;42.708;23.288;2023-03-08T11:10:26;6.80;;;4.53;;
6422;SDS011;3244;42.708;23.288;2023-03-08T11:13:00;6.93;;;6.18;;
6422;SDS011;3244;42.708;23.288;2023-03-08T11:15:28;4.95;;;4.30;;
6422;SDS011;3244;42.708;23.288;2023-03-08T11:17:59;6.85;;;3.75;;
6422;SDS011;3244;42.708;23.288;2023-03-08T11:20:30;6.00;;;3.30;;
6422;SDS011;3244;42.708;23.288;2023-03-08T11:23:12;3.28;;;2.67;;
6422;SDS011;3244;42.708;23.288;2023-03-08T11:25:50;4.68;;;3.78;;
6422;SDS011;3244;42.708;23.288;2023-03-08T11:28:28;3.78;;;2.75;;
6422;SDS011;3244;42.708;23.288;2023-03-08T11:31:11;6.97;;;2.85;;
6422;SDS011;3244;42.708;23.288;2023-03-08T11:33:50;5.43;;;2.88;;
6422;SDS011;3244;42.708;23.288;2023-03-08T11:36:24;4.63;;;3.33;;
6422;SDS011;3244;42.708;23.288;2023-03-08T11:38:56;3.53;;;3.28;;
6422;SDS011;3244;42.708;23.288;2023-03-08T11:41:30;7.38;;;3.17;;
6422;SDS011;3244;42.708;23.288;2023-03-08T11:44:08;3.38;;;2.50;;
6422;SDS011;3244;42.708;23.288;2023-03-08T11:46:48;1.88;;;1.77;;
6422;SDS011;3244;42.708;23.288;2023-03-08T11:49:32;2.75;;;1.60;;
6422;SDS011;3244;42.708;23.288;2023-03-08T11:52:16;8.02;;;1.88;;
6422;SDS011;3244;42.708;23.288;2023-03-08T11:54:53;2.22;;;1.80;;
6422;SDS011;3244;42.708;23.288;2023-03-08T11:57:32;3.03;;;1.50;;
6422;SDS011;3244;42.708;23.288;2023-03-08T12:00:03;2.97;;;1.30;;
6422;SDS011;3244;42.708;23.288;2023-03-08T12:02:39;1.80;;;1.70;;
6422;SDS011;3244;42.708;23.288;2023-03-08T12:05:11;3.58;;;1.90;;
6422;SDS011;3244;42.708;23.288;2023-03-08T12:07:44;1.67;;;1.58;;
6422;SDS011;3244;42.708;23.288;2023-03-08T12:10:17;1.98;;;1.42;;
6422;SDS011;3244;42.708;23.288;2023-03-08T12:12:48;2.15;;;1.42;;
6422;SDS011;3244;42.708;23.288;2023-03-08T12:15:22;1.50;;;1.45;;
6422;SDS011;3244;42.708;23.288;2023-03-08T12:17:55;1.50;;;1.40;;
6422;SDS011;3244;42.708;23.288;2023-03-08T12:20:27;3.38;;;1.75;;
6422;SDS011;3244;42.708;23.288;2023-03-08T12:22:58;2.35;;;1.20;;
6422;SDS011;3244;42.708;23.288;2023-03-08T12:25:28;1.92;;;1.48;;
6422;SDS011;3244;42.708;23.288;2023-03-08T12:28:00;2.22;;;2.08;;
6422;SDS011;3244;42.708;23.288;2023-03-08T12:30:36;1.65;;;1.55;;
6422;SDS011;3244;42.708;23.288;2023-03-08T12:33:10;4.65;;;1.90;;
6422;SDS011;3244;42.708;23.288;2023-03-08T12:35:48;2.97;;;1.35;;
6422;SDS011;3244;42.708;23.288;2023-03-08T12:38:29;1.70;;;1.60;;
6422;SDS011;3244;42.708;23.288;2023-03-08T12:40:58;1.83;;;1.73;;
6422;SDS011;3244;42.708;23.288;2023-03-08T12:43:30;2.70;;;1.98;;
6422;SDS011;3244;42.708;23.288;2023-03-08T12:46:00;2.20;;;2.10;;
6422;SDS011;3244;42.708;23.288;2023-03-08T12:48:30;1.48;;;1.30;;
6422;SDS011;3244;42.708;23.288;2023-03-08T12:51:03;3.47;;;1.98;;
6422;SDS011;3244;42.708;23.288;2023-03-08T12:53:45;2.45;;;2.00;;
6422;SDS011;3244;42.708;23.288;2023-03-08T12:56:22;3.28;;;2.05;;
6422;SDS011;3244;42.708;23.288;2023-03-08T12:58:54;4.30;;;2.25;;
6422;SDS011;3244;42.708;23.288;2023-03-08T13:01:26;1.42;;;1.30;;
6422;SDS011;3244;42.708;23.288;2023-03-08T13:03:56;3.72;;;1.35;;
6422;SDS011;3244;42.708;23.288;2023-03-08T13:06:32;1.60;;;1.50;;
6422;SDS011;3244;42.708;23.288;2023-03-08T13:09:17;1.88;;;1.35;;
6422;SDS011;3244;42.708;23.288;2023-03-08T13:11:51;1.77;;;1.58;;
6422;SDS011;3244;42.708;23.288;2023-03-08T13:14:26;1.63;;;1.20;;
6422;SDS011;3244;42.708;23.288;2023-03-08T13:19:57;2.28;;;2.10;;
6422;SDS011;3244;42.708;23.288;2023-03-08T13:22:29;1.50;;;1.40;;
6422;SDS011;3244;42.708;23.288;2023-03-08T13:25:04;4.57;;;1.55;;
6422;SDS011;3244;42.708;23.288;2023-03-08T13:27:36;2.72;;;1.90;;
6422;SDS011;3244;42.708;23.288;2023-03-08T13:30:19;1.58;;;1.48;;
6422;SDS011;3244;42.708;23.288;2023-03-08T13:32:49;2.35;;;1.85;;
6422;SDS011;3244;42.708;23.288;2023-03-08T13:35:16;4.30;;;2.05;;
6422;SDS011;3244;42.708;23.288;2023-03-08T13:37:50;1.65;;;1.55;;
6422;SDS011;3244;42.708;23.288;2023-03-08T13:40:19;1.60;;;1.50;;
6422;SDS011;3244;42.708;23.288;2023-03-08T13:42:53;1.55;;;1.45;;
6422;SDS011;3244;42.708;23.288;2023-03-08T13:45:22;2.60;;;1.33;;
6422;SDS011;3244;42.708;23.288;2023-03-08T13:47:50;3.25;;;1.58;;
6422;SDS011;3244;42.708;23.288;2023-03-08T13:50:19;1.90;;;1.80;;
6422;SDS011;3244;42.708;23.288;2023-03-08T13:52:50;1.80;;;1.70;;
6422;SDS011;3244;42.708;23.288;2023-03-08T13:55:18;2.15;;;1.95;;
6422;SDS011;3244;42.708;23.288;2023-03-08T13:57:49;3.10;;;2.00;;
6422;SDS011;3244;42.708;23.288;2023-03-08T14:00:29;2.15;;;1.75;;
6422;SDS011;3244;42.708;23.288;2023-03-08T14:02:57;1.70;;;1.60;;
6422;SDS011;3244;42.708;23.288;2023-03-08T14:05:26;3.67;;;1.92;;
6422;SDS011;3244;42.708;23.288;2023-03-08T14:07:54;2.67;;;2.08;;
6422;SDS011;3244;42.708;23.288;2023-03-08T14:10:27;4.05;;;1.67;;
6422;SDS011;3244;42.708;23.288;2023-03-08T14:12:59;2.40;;;2.20;;
6422;SDS011;3244;42.708;23.288;2023-03-08T14:15:28;2.20;;;2.00;;
6422;SDS011;3244;42.708;23.288;2023-03-08T14:17:56;3.58;;;2.63;;
6422;SDS011;3244;42.708;23.288;2023-03-08T14:20:23;4.13;;;2.00;;
6422;SDS011;3244;42.708;23.288;2023-03-08T14:22:51;4.50;;;1.70;;
6422;SDS011;3244;42.708;23.288;2023-03-08T14:25:20;4.03;;;2.03;;
6422;SDS011;3244;42.708;23.288;2023-03-08T14:27:49;2.63;;;2.10;;
6422;SDS011;3244;42.708;23.288;2023-03-08T14:30:17;3.72;;;1.92;;
6422;SDS011;3244;42.708;23.288;2023-03-08T14:32:57;3.05;;;1.73;;
6422;SDS011;3244;42.708;23.288;2023-03-08T14:35:27;4.85;;;2.25;;
6422;SDS011;3244;42.708;23.288;2023-03-08T14:37:56;2.63;;;2.20;;
6422;SDS011;3244;42.708;23.288;2023-03-08T14:40:27;3.03;;;2.40;;
6422;SDS011;3244;42.708;23.288;2023-03-08T14:42:56;2.13;;;1.92;;
6422;SDS011;3244;42.708;23.288;2023-03-08T14:45:27;1.73;;;1.63;;
6422;SDS011;3244;42.708;23.288;2023-03-08T14:47:59;3.33;;;3.00;;
6422;SDS011;3244;42.708;23.288;2023-03-08T14:50:28;3.55;;;2.65;;
6422;SDS011;3244;42.708;23.288;2023-03-08T14:52:56;3.00;;;2.80;;
6422;SDS011;3244;42.708;23.288;2023-03-08T14:55:25;3.65;;;2.22;;
6422;SDS011;3244;42.708;23.288;2023-03-08T14:57:54;3.00;;;2.20;;
6422;SDS011;3244;42.708;23.288;2023-03-08T15:00:22;3.33;;;2.50;;
6422;SDS011;3244;42.708;23.288;2023-03-08T15:02:51;7.60;;;2.33;;
6422;SDS011;3244;42.708;23.288;2023-03-08T15:05:20;4.55;;;2.40;;
6422;SDS011;3244;42.708;23.288;2023-03-08T15:07:49;6.72;;;3.35;;
6422;SDS011;3244;42.708;23.288;2023-03-08T15:10:23;6.50;;;5.75;;
6422;SDS011;3244;42.708;23.288;2023-03-08T15:12:53;3.80;;;3.50;;
6422;SDS011;3244;42.708;23.288;2023-03-08T15:15:20;3.58;;;3.28;;
6422;SDS011;3244;42.708;23.288;2023-03-08T15:17:46;3.65;;;3.22;;
6422;SDS011;3244;42.708;23.288;2023-03-08T15:20:13;3.78;;;2.67;;
6422;SDS011;3244;42.708;23.288;2023-03-08T15:22:43;2.72;;;2.47;;
6422;SDS011;3244;42.708;23.288;2023-03-08T15:25:13;4.57;;;3.17;;
6422;SDS011;3244;42.708;23.288;2023-03-08T15:27:41;3.22;;;2.90;;
6422;SDS011;3244;42.708;23.288;2023-03-08T15:32:42;4.22;;;3.33;;
6422;SDS011;3244;42.708;23.288;2023-03-08T15:35:09;4.80;;;3.42;;
6422;SDS011;3244;42.708;23.288;2023-03-08T15:37:36;5.45;;;3.15;;
6422;SDS011;3244;42.708;23.288;2023-03-08T15:40:04;1.80;;;1.70;;
6422;SDS011;3244;42.708;23.288;2023-03-08T15:42:33;3.35;;;2.00;;
6422;SDS011;3244;42.708;23.288;2023-03-08T15:45:00;3.55;;;1.90;;
6422;SDS011;3244;42.708;23.288;2023-03-08T15:47:27;2.42;;;1.92;;
6422;SDS011;3244;42.708;23.288;2023-03-08T15:49:54;3.45;;;2.80;;
6422;SDS011;3244;42.708;23.288;2023-03-08T15:52:21;2.63;;;2.42;;
6422;SDS011;3244;42.708;23.288;2023-03-08T15:54:47;2.58;;;2.40;;
6422;SDS011;3244;42.708;23.288;2023-03-08T15:57:16;3.45;;;1.67;;
6422;SDS011;3244;42.708;23.288;2023-03-08T15:59:43;2.17;;;1.90;;
6422;SDS011;3244;42.708;23.288;2023-03-08T16:02:10;3.95;;;3.58;;
6422;SDS011;3244;42.708;23.288;2023-03-08T16:04:40;6.97;;;2.72;;
6422;SDS011;3244;42.708;23.288;2023-03-08T16:07:11;3.00;;;2.30;;
6422;SDS011;3244;42.708;23.288;2023-03-08T16:09:39;2.83;;;1.88;;
6422;SDS011;3244;42.708;23.288;2023-03-08T16:12:06;2.45;;;1.85;;
6422;SDS011;3244;42.708;23.288;2023-03-08T16:14:34;1.70;;;1.60;;
6422;SDS011;3244;42.708;23.288;2023-03-08T16:17:01;3.22;;;2.22;;
6422;SDS011;3244;42.708;23.288;2023-03-08T16:19:30;2.60;;;2.40;;
6422;SDS011;3244;42.708;23.288;2023-03-08T16:21:57;6.47;;;2.35;;
6422;SDS011;3244;42.708;23.288;2023-03-08T16:24:24;3.92;;;2.85;;
6422;SDS011;3244;42.708;23.288;2023-03-08T16:26:51;3.13;;;2.70;;
6422;SDS011;3244;42.708;23.288;2023-03-08T16:29:17;4.35;;;2.40;;
6422;SDS011;3244;42.708;23.288;2023-03-08T16:31:45;3.63;;;2.22;;
6422;SDS011;3244;42.708;23.288;2023-03-08T16:34:12;2.50;;;2.15;;
6422;SDS011;3244;42.708;23.288;2023-03-08T16:36:39;2.60;;;2.40;;
6422;SDS011;3244;42.708;23.288;2023-03-08T16:39:06;3.33;;;2.45;;
6422;SDS011;3244;42.708;23.288;2023-03-08T16:41:33;5.15;;;2.30;;
6422;SDS011;3244;42.708;23.288;2023-03-08T16:44:00;3.03;;;2.35;;
6422;SDS011;3244;42.708;23.288;2023-03-08T16:46:26;2.28;;;2.10;;
6422;SDS011;3244;42.708;23.288;2023-03-08T16:48:55;4.53;;;2.53;;
6422;SDS011;3244;42.708;23.288;2023-03-08T16:51:24;3.50;;;2.83;;
6422;SDS011;3244;42.708;23.288;2023-03-08T16:53:51;3.83;;;3.35;;
6422;SDS011;3244;42.708;23.288;2023-03-08T16:56:20;3.38;;;3.05;;
6422;SDS011;3244;42.708;23.288;2023-03-08T16:58:48;5.43;;;3.50;;
6422;SDS011;3244;42.708;23.288;2023-03-08T17:01:16;5.90;;;5.03;;
6422;SDS011;3244;42.708;23.288;2023-03-08T17:03:43;15.02;;;5.00;;
6422;SDS011;3244;42.708;23.288;2023-03-08T17:06:13;11.77;;;4.88;;
6422;SDS011;3244;42.708;23.288;2023-03-08T17:08:41;6.40;;;5.53;;
6422;SDS011;3244;42.708;23.288;2023-03-08T17:11:12;8.10;;;5.13;;
6422;SDS011;3244;42.708;23.288;2023-03-08T17:13:40;6.88;;;5.25;;
6422;SDS011;3244;42.708;23.288;2023-03-08T17:16:09;10.98;;;5.00;;
6422;SDS011;3244;42.708;23.288;2023-03-08T17:18:36;7.68;;;5.53;;
6422;SDS011;3244;42.708;23.288;2023-03-08T17:21:04;7.85;;;5.80;;
6422;SDS011;3244;42.708;23.288;2023-03-08T17:23:32;16.35;;;9.90;;
6422;SDS011;3244;42.708;23.288;2023-03-08T17:26:01;29.35;;;16.83;;
6422;SDS011;3244;42.708;23.288;2023-03-08T17:28:29;33.63;;;18.95;;
6422;SDS011;3244;42.708;23.288;2023-03-08T17:30:55;37.75;;;16.77;;
6422;SDS011;3244;42.708;23.288;2023-03-08T17:33:22;25.08;;;16.42;;
6422;SDS011;3244;42.708;23.288;2023-03-08T17:35:50;34.70;;;15.40;;